sensor_id;sensor_type;location;lat;lon;timestamp;temperature;humidity
18577;DHT22;9418;52.694;13.294;2023-01-15T00:01:34;8.20;99.90
18577;DHT22;9418;52.694;13.294;2023-01-15T00:04:03;8.20;99.90
18577;DHT22;9418;52.694;13.294;2023-01-15T00:06:30;8.30;99.90
18577;DHT22;9418;52.694;13.294;2023-01-15T00:08:57;8.30;99.90
18577;DHT22;9418;52.694;13.294;2023-01-15T00:11:24;8.30;99.90
18577;DHT22;9418;52.694;13.294;2023-01-15T00:13:51;8.40;99.90
18577;DHT22;9418;52.694;13.294;2023-01-15T00:16:19;8.40;99.90
18577;DHT22;9418;52.694;13.294;2023-01-15T00:18:50;8.40;99.90
18577;DHT22;9418;52.694;13.294;2023-01-15T00:21:17;8.40;99.90
18577;DHT22;9418;52.694;13.294;2023-01-15T00:23:45;8.40;99.90
18577;DHT22;9418;52.694;13.294;2023-01-15T00:26:31;8.50;99.90
18577;DHT22;9418;52.694;13.294;2023-01-15T00:29:15;8.50;99.90
18577;DHT22;9418;52.694;13.294;2023-01-15T00:31:44;8.50;99.90
18577;DHT22;9418;52.694;13.294;2023-01-15T00:34:17;8.50;99.90
18577;DHT22;9418;52.694;13.294;2023-01-15T00:36:44;8.60;99.90
18577;DHT22;9418;52.694;13.294;2023-01-15T00:39:10;8.60;99.90
18577;DHT22;9418;52.694;13.294;2023-01-15T00:41:37;8.60;99.90
18577;DHT22;9418;52.694;13.294;2023-01-15T00:44:04;8.60;99.90
18577;DHT22;9418;52.694;13.294;2023-01-15T00:46:30;8.70;99.90
18577;DHT22;9418;52.694;13.294;2023-01-15T00:48:57;8.70;99.90
18577;DHT22;9418;52.694;13.294;2023-01-15T00:51:25;8.70;99.90
18577;DHT22;9418;52.694;13.294;2023-01-15T00:53:51;8.70;99.90
18577;DHT22;9418;52.694;13.294;2023-01-15T00:56:18;8.80;99.90
18577;DHT22;9418;52.694;13.294;2023-01-15T00:58:45;8.90;99.90
18577;DHT22;9418;52.694;13.294;2023-01-15T01:01:12;8.80;99.90
18577;DHT22;9418;52.694;13.294;2023-01-15T01:03:39;8.80;99.90
18577;DHT22;9418;52.694;13.294;2023-01-15T01:06:06;8.80;99.90
18577;DHT22;9418;52.694;13.294;2023-01-15T01:08:34;8.90;99.90
18577;DHT22;9418;52.694;13.294;2023-01-15T01:11:01;8.90;99.90
18577;DHT22;9418;52.694;13.294;2023-01-15T01:13:28;8.90;99.90
18577;DHT22;9418;52.694;13.294;2023-01-15T01:15:55;8.90;99.90
18577;DHT22;9418;52.694;13.294;2023-01-15T01:18:21;8.90;99.90
18577;DHT22;9418;52.694;13.294;2023-01-15T01:20:48;8.90;99.90
18577;DHT22;9418;52.694;13.294;2023-01-15T01:23:14;8.90;99.90
18577;DHT22;9418;52.694;13.294;2023-01-15T01:25:42;8.90;99.90
18577;DHT22;9418;52.694;13.294;2023-01-15T01:28:09;8.90;99.90
18577;DHT22;9418;52.694;13.294;2023-01-15T01:30:36;8.80;99.90
18577;DHT22;9418;52.694;13.294;2023-01-15T01:33:03;8.80;99.90
18577;DHT22;9418;52.694;13.294;2023-01-15T01:35:30;8.70;99.90
18577;DHT22;9418;52.694;13.294;2023-01-15T01:37:57;8.70;99.90
18577;DHT22;9418;52.694;13.294;2023-01-15T01:40:23;8.80;99.90
18577;DHT22;9418;52.694;13.294;2023-01-15T01:42:51;8.80;99.90
18577;DHT22;9418;52.694;13.294;2023-01-15T01:45:21;8.80;99.90
18577;DHT22;9418;52.694;13.294;2023-01-15T01:47:50;8.90;99.90
18577;DHT22;9418;52.694;13.294;2023-01-15T01:50:17;8.90;99.90
18577;DHT22;9418;52.694;13.294;2023-01-15T01:52:46;9.00;99.90
18577;DHT22;9418;52.694;13.294;2023-01-15T01:55:16;8.90;99.90
18577;DHT22;9418;52.694;13.294;2023-01-15T01:57:43;9.00;99.90
18577;DHT22;9418;52.694;13.294;2023-01-15T02:00:14;8.80;99.90
18577;DHT22;9418;52.694;13.294;2023-01-15T02:02:43;8.80;99.90
18577;DHT22;9418;52.694;13.294;2023-01-15T02:05:13;8.70;99.90
18577;DHT22;9418;52.694;13.294;2023-01-15T02:07:41;8.70;99.90
18577;DHT22;9418;52.694;13.294;2023-01-15T02:10:13;8.70;99.90
18577;DHT22;9418;52.694;13.294;2023-01-15T02:12:41;8.70;99.90
18577;DHT22;9418;52.694;13.294;2023-01-15T02:15:14;8.80;99.90
18577;DHT22;9418;52.694;13.294;2023-01-15T02:17:47;8.70;99.90
18577;DHT22;9418;52.694;13.294;2023-01-15T02:20:25;8.70;99.90
18577;DHT22;9418;52.694;13.294;2023-01-15T02:23:19;8.70;99.90
18577;DHT22;9418;52.694;13.294;2023-01-15T02:26:02;8.80;99.90
18577;DHT22;9418;52.694;13.294;2023-01-15T02:28:36;8.80;99.90
18577;DHT22;9418;52.694;13.294;2023-01-15T02:31:08;8.80;99.90
18577;DHT22;9418;52.694;13.294;2023-01-15T02:33:37;8.70;99.90
18577;DHT22;9418;52.694;13.294;2023-01-15T02:36:08;8.70;99.90
18577;DHT22;9418;52.694;13.294;2023-01-15T02:38:40;8.60;99.90
18577;DHT22;9418;52.694;13.294;2023-01-15T02:41:10;8.70;99.90
18577;DHT22;9418;52.694;13.294;2023-01-15T02:43:44;8.60;99.90
18577;DHT22;9418;52.694;13.294;2023-01-15T02:46:14;8.70;99.90
18577;DHT22;9418;52.694;13.294;2023-01-15T02:48:45;8.70;99.90
18577;DHT22;9418;52.694;13.294;2023-01-15T02:51:14;8.60;99.90
18577;DHT22;9418;52.694;13.294;2023-01-15T02:53:45;8.60;99.90
18577;DHT22;9418;52.694;13.294;2023-01-15T02:56:16;8.60;99.90
18577;DHT22;9418;52.694;13.294;2023-01-15T02:58:47;8.60;99.90
18577;DHT22;9418;52.694;13.294;2023-01-15T03:01:19;8.60;99.90
18577;DHT22;9418;52.694;13.294;2023-01-15T03:03:51;8.50;99.90
18577;DHT22;9418;52.694;13.294;2023-01-15T03:06:24;8.60;99.90
18577;DHT22;9418;52.694;13.294;2023-01-15T03:08:53;8.60;99.90
18577;DHT22;9418;52.694;13.294;2023-01-15T03:11:19;8.60;99.90
18577;DHT22;9418;52.694;13.294;2023-01-15T03:13:52;8.60;99.90
18577;DHT22;9418;52.694;13.294;2023-01-15T03:16:28;8.50;99.90
18577;DHT22;9418;52.694;13.294;2023-01-15T03:19:04;8.50;99.90
18577;DHT22;9418;52.694;13.294;2023-01-15T03:21:38;8.50;99.90
18577;DHT22;9418;52.694;13.294;2023-01-15T03:24:07;8.60;99.90
18577;DHT22;9418;52.694;13.294;2023-01-15T03:26:35;8.60;99.90
18577;DHT22;9418;52.694;13.294;2023-01-15T03:29:06;8.60;99.90
18577;DHT22;9418;52.694;13.294;2023-01-15T03:31:33;8.60;99.90
18577;DHT22;9418;52.694;13.294;2023-01-15T03:34:01;8.50;99.90
18577;DHT22;9418;52.694;13.294;2023-01-15T03:36:28;8.60;99.90
18577;DHT22;9418;52.694;13.294;2023-01-15T03:38:55;8.60;99.90
18577;DHT22;9418;52.694;13.294;2023-01-15T03:41:26;8.60;99.90
18577;DHT22;9418;52.694;13.294;2023-01-15T03:44:04;8.60;99.90
18577;DHT22;9418;52.694;13.294;2023-01-15T03:46:40;8.60;99.90
18577;DHT22;9418;52.694;13.294;2023-01-15T03:49:17;8.40;99.90
18577;DHT22;9418;52.694;13.294;2023-01-15T03:51:53;7.90;99.90
18577;DHT22;9418;52.694;13.294;2023-01-15T03:54:27;7.70;99.90
18577;DHT22;9418;52.694;13.294;2023-01-15T03:57:00;7.50;99.90
18577;DHT22;9418;52.694;13.294;2023-01-15T03:59:33;7.40;99.90
18577;DHT22;9418;52.694;13.294;2023-01-15T04:02:02;7.30;99.90
18577;DHT22;9418;52.694;13.294;2023-01-15T04:04:32;7.20;99.90
18577;DHT22;9418;52.694;13.294;2023-01-15T04:06:59;7.10;99.90
18577;DHT22;9418;52.694;13.294;2023-01-15T04:09:27;6.90;99.90
18577;DHT22;9418;52.694;13.294;2023-01-15T04:11:57;6.80;99.90
18577;DHT22;9418;52.694;13.294;2023-01-15T04:14:24;6.70;99.90
18577;DHT22;9418;52.694;13.294;2023-01-15T04:16:52;6.50;99.90
18577;DHT22;9418;52.694;13.294;2023-01-15T04:19:19;6.40;99.90
18577;DHT22;9418;52.694;13.294;2023-01-15T04:21:45;6.30;99.90
18577;DHT22;9418;52.694;13.294;2023-01-15T04:24:12;6.10;99.90
18577;DHT22;9418;52.694;13.294;2023-01-15T04:26:38;5.90;99.90
18577;DHT22;9418;52.694;13.294;2023-01-15T04:29:05;5.80;99.90
18577;DHT22;9418;52.694;13.294;2023-01-15T04:31:32;5.70;99.90
18577;DHT22;9418;52.694;13.294;2023-01-15T04:34:02;5.70;99.90
18577;DHT22;9418;52.694;13.294;2023-01-15T04:36:28;5.60;99.90
18577;DHT22;9418;52.694;13.294;2023-01-15T04:38:55;5.60;99.90
18577;DHT22;9418;52.694;13.294;2023-01-15T04:41:24;5.60;99.90
18577;DHT22;9418;52.694;13.294;2023-01-15T04:44:08;5.50;99.90
18577;DHT22;9418;52.694;13.294;2023-01-15T04:46:36;5.50;99.90
18577;DHT22;9418;52.694;13.294;2023-01-15T04:49:05;5.50;99.90
18577;DHT22;9418;52.694;13.294;2023-01-15T04:51:33;5.50;99.90
18577;DHT22;9418;52.694;13.294;2023-01-15T04:54:02;5.40;99.90
18577;DHT22;9418;52.694;13.294;2023-01-15T04:56:29;5.40;99.90
18577;DHT22;9418;52.694;13.294;2023-01-15T04:58:59;5.30;99.90
18577;DHT22;9418;52.694;13.294;2023-01-15T05:01:25;5.30;99.90
18577;DHT22;9418;52.694;13.294;2023-01-15T05:03:52;5.30;99.90
18577;DHT22;9418;52.694;13.294;2023-01-15T05:06:20;5.30;99.90
18577;DHT22;9418;52.694;13.294;2023-01-15T05:08:47;5.30;99.90
18577;DHT22;9418;52.694;13.294;2023-01-15T05:11:13;5.30;99.90
18577;DHT22;9418;52.694;13.294;2023-01-15T05:13:40;5.30;99.90
18577;DHT22;9418;52.694;13.294;2023-01-15T05:16:10;5.30;99.90
18577;DHT22;9418;52.694;13.294;2023-01-15T05:18:36;5.20;99.90
18577;DHT22;9418;52.694;13.294;2023-01-15T05:21:03;5.20;99.90
18577;DHT22;9418;52.694;13.294;2023-01-15T05:23:31;5.30;99.90
18577;DHT22;9418;52.694;13.294;2023-01-15T05:26:02;5.20;99.90
18577;DHT22;9418;52.694;13.294;2023-01-15T05:28:29;5.30;99.90
18577;DHT22;9418;52.694;13.294;2023-01-15T05:30:56;5.30;99.90
18577;DHT22;9418;52.694;13.294;2023-01-15T05:33:22;5.20;99.90
18577;DHT22;9418;52.694;13.294;2023-01-15T05:35:49;5.20;99.90
18577;DHT22;9418;52.694;13.294;2023-01-15T05:38:15;5.20;99.90
18577;DHT22;9418;52.694;13.294;2023-01-15T05:40:43;5.20;99.90
18577;DHT22;9418;52.694;13.294;2023-01-15T05:43:10;5.20;99.90
18577;DHT22;9418;52.694;13.294;2023-01-15T05:45:36;5.20;99.90
18577;DHT22;9418;52.694;13.294;2023-01-15T05:48:03;5.20;99.90
18577;DHT22;9418;52.694;13.294;2023-01-15T05:50:30;5.20;99.90
18577;DHT22;9418;52.694;13.294;2023-01-15T05:52:56;5.20;99.90
18577;DHT22;9418;52.694;13.294;2023-01-15T05:55:23;5.20;99.90
18577;DHT22;9418;52.694;13.294;2023-01-15T05:57:51;5.20;99.90
18577;DHT22;9418;52.694;13.294;2023-01-15T06:00:18;5.20;99.90
18577;DHT22;9418;52.694;13.294;2023-01-15T06:02:47;5.20;99.90
18577;DHT22;9418;52.694;13.294;2023-01-15T06:05:14;5.20;99.90
18577;DHT22;9418;52.694;13.294;2023-01-15T06:07:46;5.20;99.90
18577;DHT22;9418;52.694;13.294;2023-01-15T06:10:14;5.10;99.90
18577;DHT22;9418;52.694;13.294;2023-01-15T06:12:41;5.20;99.90
18577;DHT22;9418;52.694;13.294;2023-01-15T06:15:10;5.20;99.90
18577;DHT22;9418;52.694;13.294;2023-01-15T06:17:36;5.10;99.90
18577;DHT22;9418;52.694;13.294;2023-01-15T06:20:03;5.20;99.90
18577;DHT22;9418;52.694;13.294;2023-01-15T06:22:30;5.10;99.90
18577;DHT22;9418;52.694;13.294;2023-01-15T06:24:56;5.10;99.90
18577;DHT22;9418;52.694;13.294;2023-01-15T06:27:23;5.10;99.90
18577;DHT22;9418;52.694;13.294;2023-01-15T06:29:50;5.10;99.90
18577;DHT22;9418;52.694;13.294;2023-01-15T06:32:19;5.10;99.90
18577;DHT22;9418;52.694;13.294;2023-01-15T06:34:46;5.10;99.90
18577;DHT22;9418;52.694;13.294;2023-01-15T06:37:12;5.10;99.90
18577;DHT22;9418;52.694;13.294;2023-01-15T06:39:39;5.20;99.90
18577;DHT22;9418;52.694;13.294;2023-01-15T06:42:05;5.10;99.90
18577;DHT22;9418;52.694;13.294;2023-01-15T06:44:49;5.10;99.90
18577;DHT22;9418;52.694;13.294;2023-01-15T06:47:35;5.10;99.90
18577;DHT22;9418;52.694;13.294;2023-01-15T06:50:01;5.10;99.90
18577;DHT22;9418;52.694;13.294;2023-01-15T06:52:28;5.10;99.90
18577;DHT22;9418;52.694;13.294;2023-01-15T06:54:55;5.10;99.90
18577;DHT22;9418;52.694;13.294;2023-01-15T06:57:22;5.10;99.90
18577;DHT22;9418;52.694;13.294;2023-01-15T06:59:49;5.10;99.90
18577;DHT22;9418;52.694;13.294;2023-01-15T07:02:16;5.10;99.90
18577;DHT22;9418;52.694;13.294;2023-01-15T07:04:44;5.10;99.90
18577;DHT22;9418;52.694;13.294;2023-01-15T07:07:12;5.10;99.90
18577;DHT22;9418;52.694;13.294;2023-01-15T07:09:38;5.10;99.90
18577;DHT22;9418;52.694;13.294;2023-01-15T07:12:05;5.10;99.90
18577;DHT22;9418;52.694;13.294;2023-01-15T07:14:32;5.10;99.90
18577;DHT22;9418;52.694;13.294;2023-01-15T07:16:58;5.10;99.90
18577;DHT22;9418;52.694;13.294;2023-01-15T07:19:25;5.10;99.90
18577;DHT22;9418;52.694;13.294;2023-01-15T07:21:53;5.10;99.90
18577;DHT22;9418;52.694;13.294;2023-01-15T07:24:20;5.00;99.90
18577;DHT22;9418;52.694;13.294;2023-01-15T07:26:47;5.10;99.90
18577;DHT22;9418;52.694;13.294;2023-01-15T07:29:14;5.00;99.90
18577;DHT22;9418;52.694;13.294;2023-01-15T07:31:40;5.00;99.90
18577;DHT22;9418;52.694;13.294;2023-01-15T07:34:07;5.10;99.90
18577;DHT22;9418;52.694;13.294;2023-01-15T07:36:34;5.00;99.90
18577;DHT22;9418;52.694;13.294;2023-01-15T07:39:03;5.00;99.90
18577;DHT22;9418;52.694;13.294;2023-01-15T07:41:30;5.00;99.90
18577;DHT22;9418;52.694;13.294;2023-01-15T07:44:15;5.00;99.90
18577;DHT22;9418;52.694;13.294;2023-01-15T07:46:58;5.10;99.90
18577;DHT22;9418;52.694;13.294;2023-01-15T07:49:43;5.10;99.90
18577;DHT22;9418;52.694;13.294;2023-01-15T07:52:14;5.10;99.90
18577;DHT22;9418;52.694;13.294;2023-01-15T07:54:43;5.10;99.90
18577;DHT22;9418;52.694;13.294;2023-01-15T07:57:10;5.20;99.90
18577;DHT22;9418;52.694;13.294;2023-01-15T07:59:36;5.20;99.90
18577;DHT22;9418;52.694;13.294;2023-01-15T08:02:03;5.20;99.90
18577;DHT22;9418;52.694;13.294;2023-01-15T08:04:30;5.20;99.90
18577;DHT22;9418;52.694;13.294;2023-01-15T08:06:58;5.20;99.90
18577;DHT22;9418;52.694;13.294;2023-01-15T08:09:25;5.20;99.90
18577;DHT22;9418;52.694;13.294;2023-01-15T08:11:53;5.20;99.90
18577;DHT22;9418;52.694;13.294;2023-01-15T08:14:37;5.30;99.90
18577;DHT22;9418;52.694;13.294;2023-01-15T08:17:21;5.30;99.90
18577;DHT22;9418;52.694;13.294;2023-01-15T08:19:48;5.30;99.90
18577;DHT22;9418;52.694;13.294;2023-01-15T08:22:14;5.30;95.30
18577;DHT22;9418;52.694;13.294;2023-01-15T08:24:41;5.30;20.10
18577;DHT22;9418;52.694;13.294;2023-01-15T08:27:09;5.30;88.30
18577;DHT22;9418;52.694;13.294;2023-01-15T08:29:36;5.30;99.90
18577;DHT22;9418;52.694;13.294;2023-01-15T08:32:03;5.30;99.90
18577;DHT22;9418;52.694;13.294;2023-01-15T08:34:29;5.30;99.90
18577;DHT22;9418;52.694;13.294;2023-01-15T08:36:56;5.30;91.90
18577;DHT22;9418;52.694;13.294;2023-01-15T08:39:25;5.40;93.10
18577;DHT22;9418;52.694;13.294;2023-01-15T08:41:51;5.40;88.10
18577;DHT22;9418;52.694;13.294;2023-01-15T08:44:19;5.40;76.30
18577;DHT22;9418;52.694;13.294;2023-01-15T08:46:48;5.40;93.50
18577;DHT22;9418;52.694;13.294;2023-01-15T08:49:15;5.40;22.20
18577;DHT22;9418;52.694;13.294;2023-01-15T08:51:42;5.50;21.00
18577;DHT22;9418;52.694;13.294;2023-01-15T08:54:09;5.50;21.80
18577;DHT22;9418;52.694;13.294;2023-01-15T08:56:36;5.50;27.40
18577;DHT22;9418;52.694;13.294;2023-01-15T08:59:03;5.50;27.60
18577;DHT22;9418;52.694;13.294;2023-01-15T09:01:33;5.50;30.40
18577;DHT22;9418;52.694;13.294;2023-01-15T09:04:00;5.50;30.80
18577;DHT22;9418;52.694;13.294;2023-01-15T09:06:27;5.60;34.00
18577;DHT22;9418;52.694;13.294;2023-01-15T09:08:54;5.60;39.30
18577;DHT22;9418;52.694;13.294;2023-01-15T09:11:20;5.60;38.00
18577;DHT22;9418;52.694;13.294;2023-01-15T09:13:47;5.60;39.50
18577;DHT22;9418;52.694;13.294;2023-01-15T09:16:15;5.60;42.00
18577;DHT22;9418;52.694;13.294;2023-01-15T09:18:44;5.60;49.90
18577;DHT22;9418;52.694;13.294;2023-01-15T09:21:10;5.60;48.70
18577;DHT22;9418;52.694;13.294;2023-01-15T09:23:37;5.70;50.40
18577;DHT22;9418;52.694;13.294;2023-01-15T09:26:05;5.70;51.40
18577;DHT22;9418;52.694;13.294;2023-01-15T09:28:33;5.70;55.30
18577;DHT22;9418;52.694;13.294;2023-01-15T09:31:00;5.80;60.80
18577;DHT22;9418;52.694;13.294;2023-01-15T09:33:27;5.80;78.30
18577;DHT22;9418;52.694;13.294;2023-01-15T09:35:55;5.80;80.60
18577;DHT22;9418;52.694;13.294;2023-01-15T09:38:21;5.90;75.60
18577;DHT22;9418;52.694;13.294;2023-01-15T09:40:50;5.90;71.30
18577;DHT22;9418;52.694;13.294;2023-01-15T09:43:28;5.90;84.40
18577;DHT22;9418;52.694;13.294;2023-01-15T09:46:02;5.90;88.10
18577;DHT22;9418;52.694;13.294;2023-01-15T09:48:41;6.00;88.80
18577;DHT22;9418;52.694;13.294;2023-01-15T09:51:23;6.00;90.40
18577;DHT22;9418;52.694;13.294;2023-01-15T09:54:13;6.10;92.70
18577;DHT22;9418;52.694;13.294;2023-01-15T09:56:42;6.10;99.90
18577;DHT22;9418;52.694;13.294;2023-01-15T09:59:18;6.20;99.90
18577;DHT22;9418;52.694;13.294;2023-01-15T10:01:46;6.20;99.90
18577;DHT22;9418;52.694;13.294;2023-01-15T10:04:28;6.30;99.90
18577;DHT22;9418;52.694;13.294;2023-01-15T10:07:02;6.40;99.90
18577;DHT22;9418;52.694;13.294;2023-01-15T10:09:34;6.40;99.90
18577;DHT22;9418;52.694;13.294;2023-01-15T10:12:11;6.50;99.90
18577;DHT22;9418;52.694;13.294;2023-01-15T10:15:01;6.50;99.90
18577;DHT22;9418;52.694;13.294;2023-01-15T10:17:33;6.60;99.90
18577;DHT22;9418;52.694;13.294;2023-01-15T10:20:05;6.60;99.90
18577;DHT22;9418;52.694;13.294;2023-01-15T10:23:04;6.60;99.90
18577;DHT22;9418;52.694;13.294;2023-01-15T10:25:41;6.60;99.90
18577;DHT22;9418;52.694;13.294;2023-01-15T10:28:17;6.60;99.90
18577;DHT22;9418;52.694;13.294;2023-01-15T10:30:47;6.60;99.90
18577;DHT22;9418;52.694;13.294;2023-01-15T10:33:39;6.80;99.90
18577;DHT22;9418;52.694;13.294;2023-01-15T10:36:08;6.70;99.90
18577;DHT22;9418;52.694;13.294;2023-01-15T10:38:44;6.70;99.90
18577;DHT22;9418;52.694;13.294;2023-01-15T10:41:34;6.70;99.90
18577;DHT22;9418;52.694;13.294;2023-01-15T10:44:08;6.70;99.90
18577;DHT22;9418;52.694;13.294;2023-01-15T10:46:38;6.70;99.90
18577;DHT22;9418;52.694;13.294;2023-01-15T10:49:12;6.70;99.90
18577;DHT22;9418;52.694;13.294;2023-01-15T10:51:41;6.70;99.90
18577;DHT22;9418;52.694;13.294;2023-01-15T10:54:16;6.70;99.90
18577;DHT22;9418;52.694;13.294;2023-01-15T10:56:50;6.80;99.90
18577;DHT22;9418;52.694;13.294;2023-01-15T10:59:26;6.80;99.90
18577;DHT22;9418;52.694;13.294;2023-01-15T11:01:57;6.80;99.90
18577;DHT22;9418;52.694;13.294;2023-01-15T11:04:26;6.80;99.90
18577;DHT22;9418;52.694;13.294;2023-01-15T11:06:54;6.80;99.90
18577;DHT22;9418;52.694;13.294;2023-01-15T11:09:24;6.80;99.90
18577;DHT22;9418;52.694;13.294;2023-01-15T11:12:04;6.80;99.90
18577;DHT22;9418;52.694;13.294;2023-01-15T11:14:49;6.80;99.90
18577;DHT22;9418;52.694;13.294;2023-01-15T11:17:42;6.80;99.90
18577;DHT22;9418;52.694;13.294;2023-01-15T11:20:29;6.80;99.90
18577;DHT22;9418;52.694;13.294;2023-01-15T11:23:05;6.80;99.90
18577;DHT22;9418;52.694;13.294;2023-01-15T11:25:34;6.80;99.90
18577;DHT22;9418;52.694;13.294;2023-01-15T11:28:04;6.80;99.90
18577;DHT22;9418;52.694;13.294;2023-01-15T11:30:33;6.80;99.90
18577;DHT22;9418;52.694;13.294;2023-01-15T11:33:05;6.90;99.90
18577;DHT22;9418;52.694;13.294;2023-01-15T11:35:33;6.80;99.90
18577;DHT22;9418;52.694;13.294;2023-01-15T11:38:06;6.80;99.90
18577;DHT22;9418;52.694;13.294;2023-01-15T11:40:49;6.80;99.90
18577;DHT22;9418;52.694;13.294;2023-01-15T11:43:20;6.80;99.90
18577;DHT22;9418;52.694;13.294;2023-01-15T11:46:05;6.80;99.90
18577;DHT22;9418;52.694;13.294;2023-01-15T11:48:49;6.80;99.90
18577;DHT22;9418;52.694;13.294;2023-01-15T11:51:37;6.80;99.90
18577;DHT22;9418;52.694;13.294;2023-01-15T11:54:08;6.90;99.90
18577;DHT22;9418;52.694;13.294;2023-01-15T11:56:40;6.90;99.90
18577;DHT22;9418;52.694;13.294;2023-01-15T11:59:09;6.90;99.90
18577;DHT22;9418;52.694;13.294;2023-01-15T12:01:46;6.90;99.90
18577;DHT22;9418;52.694;13.294;2023-01-15T12:04:31;6.90;99.90
18577;DHT22;9418;52.694;13.294;2023-01-15T12:07:00;6.90;99.90
18577;DHT22;9418;52.694;13.294;2023-01-15T12:09:38;6.80;99.90
18577;DHT22;9418;52.694;13.294;2023-01-15T12:12:18;6.90;99.90
18577;DHT22;9418;52.694;13.294;2023-01-15T12:15:08;6.90;99.90
18577;DHT22;9418;52.694;13.294;2023-01-15T12:17:55;6.90;99.90
18577;DHT22;9418;52.694;13.294;2023-01-15T12:20:28;6.90;99.90
18577;DHT22;9418;52.694;13.294;2023-01-15T12:23:17;6.90;99.90
18577;DHT22;9418;52.694;13.294;2023-01-15T12:25:56;7.00;99.90
18577;DHT22;9418;52.694;13.294;2023-01-15T12:28:33;7.00;99.90
18577;DHT22;9418;52.694;13.294;2023-01-15T12:31:05;7.10;25.40
18577;DHT22;9418;52.694;13.294;2023-01-15T12:33:42;7.40;27.40
18577;DHT22;9418;52.694;13.294;2023-01-15T12:36:14;7.50;54.10
18577;DHT22;9418;52.694;13.294;2023-01-15T12:38:47;7.40;51.40
18577;DHT22;9418;52.694;13.294;2023-01-15T12:41:18;7.40;37.20
18577;DHT22;9418;52.694;13.294;2023-01-15T12:43:52;7.30;49.80
18577;DHT22;9418;52.694;13.294;2023-01-15T12:46:39;7.30;41.40
18577;DHT22;9418;52.694;13.294;2023-01-15T12:49:18;7.30;48.50
18577;DHT22;9418;52.694;13.294;2023-01-15T12:51:59;7.20;42.00
18577;DHT22;9418;52.694;13.294;2023-01-15T12:54:32;7.20;45.40
18577;DHT22;9418;52.694;13.294;2023-01-15T12:57:07;7.10;48.40
18577;DHT22;9418;52.694;13.294;2023-01-15T12:59:43;7.10;40.40
18577;DHT22;9418;52.694;13.294;2023-01-15T13:02:17;7.10;57.20
18577;DHT22;9418;52.694;13.294;2023-01-15T13:04:49;7.10;57.40
18577;DHT22;9418;52.694;13.294;2023-01-15T13:07:21;7.20;55.70
18577;DHT22;9418;52.694;13.294;2023-01-15T13:09:55;7.30;62.80
18577;DHT22;9418;52.694;13.294;2023-01-15T13:12:24;7.60;73.70
18577;DHT22;9418;52.694;13.294;2023-01-15T13:14:52;7.90;85.40
18577;DHT22;9418;52.694;13.294;2023-01-15T13:17:26;8.10;99.90
18577;DHT22;9418;52.694;13.294;2023-01-15T13:20:08;8.20;99.90
18577;DHT22;9418;52.694;13.294;2023-01-15T13:22:42;8.30;99.90
18577;DHT22;9418;52.694;13.294;2023-01-15T13:25:27;8.70;99.90
18577;DHT22;9418;52.694;13.294;2023-01-15T13:28:09;8.20;99.90
18577;DHT22;9418;52.694;13.294;2023-01-15T13:30:48;8.10;99.90
18577;DHT22;9418;52.694;13.294;2023-01-15T13:33:24;8.30;94.60
18577;DHT22;9418;52.694;13.294;2023-01-15T13:35:55;8.60;99.90
18577;DHT22;9418;52.694;13.294;2023-01-15T13:38:25;9.00;99.90
18577;DHT22;9418;52.694;13.294;2023-01-15T13:40:54;9.30;99.90
18577;DHT22;9418;52.694;13.294;2023-01-15T13:43:29;9.30;99.90
18577;DHT22;9418;52.694;13.294;2023-01-15T13:45:59;9.70;71.50
18577;DHT22;9418;52.694;13.294;2023-01-15T13:48:30;8.90;99.90
18577;DHT22;9418;52.694;13.294;2023-01-15T13:50:59;8.70;99.90
18577;DHT22;9418;52.694;13.294;2023-01-15T13:53:29;8.50;99.90
18577;DHT22;9418;52.694;13.294;2023-01-15T13:55:58;9.50;24.90
18577;DHT22;9418;52.694;13.294;2023-01-15T13:58:31;9.70;47.90
18577;DHT22;9418;52.694;13.294;2023-01-15T14:01:08;8.40;99.90
18577;DHT22;9418;52.694;13.294;2023-01-15T14:03:54;8.70;99.90
18577;DHT22;9418;52.694;13.294;2023-01-15T14:06:35;8.70;99.90
18577;DHT22;9418;52.694;13.294;2023-01-15T14:09:01;9.00;77.80
18577;DHT22;9418;52.694;13.294;2023-01-15T14:11:36;8.50;99.90
18577;DHT22;9418;52.694;13.294;2023-01-15T14:14:39;8.30;99.90
18577;DHT22;9418;52.694;13.294;2023-01-15T14:17:26;7.90;99.90
18577;DHT22;9418;52.694;13.294;2023-01-15T14:20:10;7.60;99.90
18577;DHT22;9418;52.694;13.294;2023-01-15T14:22:54;7.50;99.90
18577;DHT22;9418;52.694;13.294;2023-01-15T14:25:31;7.40;99.90
18577;DHT22;9418;52.694;13.294;2023-01-15T14:28:20;7.30;99.90
18577;DHT22;9418;52.694;13.294;2023-01-15T14:31:08;7.20;99.90
18577;DHT22;9418;52.694;13.294;2023-01-15T14:33:50;7.10;99.90
18577;DHT22;9418;52.694;13.294;2023-01-15T14:36:23;7.10;99.90
18577;DHT22;9418;52.694;13.294;2023-01-15T14:38:54;7.10;99.90
18577;DHT22;9418;52.694;13.294;2023-01-15T14:41:25;7.10;99.90
18577;DHT22;9418;52.694;13.294;2023-01-15T14:43:52;7.00;99.90
18577;DHT22;9418;52.694;13.294;2023-01-15T14:46:25;7.00;99.90
18577;DHT22;9418;52.694;13.294;2023-01-15T14:48:54;7.00;99.90
18577;DHT22;9418;52.694;13.294;2023-01-15T14:51:24;7.00;99.90
18577;DHT22;9418;52.694;13.294;2023-01-15T14:53:54;6.90;99.90
18577;DHT22;9418;52.694;13.294;2023-01-15T14:56:22;6.90;99.90
18577;DHT22;9418;52.694;13.294;2023-01-15T14:59:00;6.90;99.90
18577;DHT22;9418;52.694;13.294;2023-01-15T15:01:38;7.00;99.90
18577;DHT22;9418;52.694;13.294;2023-01-15T15:04:14;7.00;99.90
18577;DHT22;9418;52.694;13.294;2023-01-15T15:06:47;7.00;99.90
18577;DHT22;9418;52.694;13.294;2023-01-15T15:12:16;6.80;99.90
18577;DHT22;9418;52.694;13.294;2023-01-15T15:14:48;6.80;99.90
18577;DHT22;9418;52.694;13.294;2023-01-15T15:17:22;6.70;99.90
18577;DHT22;9418;52.694;13.294;2023-01-15T15:19:59;6.70;99.90
18577;DHT22;9418;52.694;13.294;2023-01-15T15:22:29;6.60;99.90
18577;DHT22;9418;52.694;13.294;2023-01-15T15:25:00;6.60;99.90
18577;DHT22;9418;52.694;13.294;2023-01-15T15:27:30;6.50;99.90
18577;DHT22;9418;52.694;13.294;2023-01-15T15:30:03;6.50;99.90
18577;DHT22;9418;52.694;13.294;2023-01-15T15:32:30;6.60;99.90
18577;DHT22;9418;52.694;13.294;2023-01-15T15:35:04;6.60;99.90
18577;DHT22;9418;52.694;13.294;2023-01-15T15:37:32;6.60;99.90
18577;DHT22;9418;52.694;13.294;2023-01-15T15:40:01;6.60;99.90
18577;DHT22;9418;52.694;13.294;2023-01-15T15:42:31;6.40;99.90
18577;DHT22;9418;52.694;13.294;2023-01-15T15:45:19;6.40;99.90
18577;DHT22;9418;52.694;13.294;2023-01-15T15:48:12;6.40;99.90
18577;DHT22;9418;52.694;13.294;2023-01-15T15:50:58;6.40;99.90
18577;DHT22;9418;52.694;13.294;2023-01-15T15:53:25;6.40;99.90
18577;DHT22;9418;52.694;13.294;2023-01-15T15:55:53;6.40;99.90
18577;DHT22;9418;52.694;13.294;2023-01-15T15:58:23;6.30;99.90
18577;DHT22;9418;52.694;13.294;2023-01-15T16:00:51;6.30;99.90
18577;DHT22;9418;52.694;13.294;2023-01-15T16:03:21;6.30;99.90
18577;DHT22;9418;52.694;13.294;2023-01-15T16:05:56;6.20;99.90
18577;DHT22;9418;52.694;13.294;2023-01-15T16:08:25;6.20;99.90
18577;DHT22;9418;52.694;13.294;2023-01-15T16:10:53;6.20;99.90
18577;DHT22;9418;52.694;13.294;2023-01-15T16:13:23;6.20;99.90
18577;DHT22;9418;52.694;13.294;2023-01-15T16:15:52;6.20;99.90